Time;durP1;ratioP1;P1;durP2;ratioP2;P2;SDS_P1;SDS_P2;PMS_P1;PMS_P2;Temp;Humidity;BMP_temperature;BMP_pressure;BME280_temperature;BME280_humidity;BME280_pressure;Samples;Min_cycle;Max_cycle;Signal;HPM_P1;HPM_P2
2023/06/19 00:00:15;;;;;;;11.63;10.73;;;24.70;12.00;;;;;;4988811;28;20181;-61
2023/06/19 00:02:41;;;;;;;12.77;11.77;;;24.70;12.20;;;;;;4988197;28;20241;-61
2023/06/19 00:05:08;;;;;;;11.83;10.83;;;24.60;12.20;;;;;;4988594;28;20472;-60
2023/06/19 00:07:37;;;;;;;11.47;10.27;;;24.70;12.50;;;;;;4988730;28;20437;-60
2023/06/19 00:10:04;;;;;;;10.80;10.10;;;24.70;12.30;;;;;;4988565;28;20425;-61
2023/06/19 00:12:29;;;;;;;11.57;10.67;;;24.70;12.30;;;;;;4987962;28;20826;-61
2023/06/19 00:14:55;;;;;;;11.63;10.70;;;24.70;12.50;;;;;;4988372;28;20425;-60
2023/06/19 00:17:21;;;;;;;11.97;11.17;;;24.60;12.60;;;;;;4988607;28;20688;-62
2023/06/19 00:19:48;;;;;;;11.93;11.13;;;24.70;12.60;;;;;;4988353;28;20178;-60
2023/06/19 00:22:14;;;;;;;10.97;10.27;;;24.70;12.50;;;;;;4988048;28;20186;-60
2023/06/19 00:24:40;;;;;;;11.20;10.50;;;24.70;12.50;;;;;;4988345;28;20755;-60
2023/06/19 00:27:06;;;;;;;10.43;9.53;;;24.70;12.60;;;;;;4988544;28;20433;-60
2023/06/19 00:29:33;;;;;;;10.40;9.80;;;24.60;12.60;;;;;;4988311;28;20262;-60
2023/06/19 00:31:59;;;;;;;10.57;9.87;;;24.60;12.60;;;;;;4972842;28;20418;-60
2023/06/19 00:34:25;;;;;;;10.93;10.13;;;24.70;12.50;;;;;;4988227;28;20414;-60
2023/06/19 00:36:56;;;;;;;10.77;10.07;;;24.70;12.50;;;;;;4988020;28;20410;-61
2023/06/19 00:39:22;;;;;;;11.67;10.73;;;24.60;12.30;;;;;;4988331;28;20256;-60
2023/06/19 00:41:49;;;;;;;10.40;9.50;;;24.60;12.40;;;;;;4972659;28;20470;-60
2023/06/19 00:44:15;;;;;;;11.40;10.60;;;24.60;12.40;;;;;;4988265;28;20425;-61
2023/06/19 00:46:41;;;;;;;10.07;9.40;;;24.60;12.50;;;;;;4988221;28;20418;-60
2023/06/19 00:49:08;;;;;;;10.97;10.27;;;24.60;12.50;;;;;;4972388;28;20309;-61
2023/06/19 00:51:34;;;;;;;10.20;9.60;;;24.60;12.50;;;;;;4987838;28;20414;-60
2023/06/19 00:54:00;;;;;;;10.97;10.17;;;24.50;12.30;;;;;;4988153;28;20469;-61
2023/06/19 00:56:26;;;;;;;11.20;10.40;;;24.50;12.40;;;;;;4988167;28;20175;-61
2023/06/19 00:58:55;;;;;;;11.50;10.47;;;24.50;12.40;;;;;;4987888;28;20229;-60
2023/06/19 01:01:23;;;;;;;10.40;9.67;;;24.50;12.30;;;;;;4988459;28;20422;-62
2023/06/19 01:03:49;;;;;;;10.20;9.60;;;24.50;12.50;;;;;;4991898;28;20488;-61
2023/06/19 01:06:23;;;;;;;10.87;9.90;;;24.50;12.40;;;;;;4992187;28;20423;-61
2023/06/19 01:09:05;;;;;;;10.37;9.77;;;24.50;12.30;;;;;;4991895;28;20197;-61
2023/06/19 01:11:39;;;;;;;10.57;9.87;;;24.60;12.30;;;;;;4991381;28;20427;-61
2023/06/19 01:14:12;;;;;;;9.70;9.00;;;24.60;12.20;;;;;;4991723;28;21025;-62
2023/06/19 01:16:39;;;;;;;10.50;10.00;;;24.70;12.80;;;;;;4991849;28;20422;-61
2023/06/19 01:19:09;;;;;;;10.33;9.60;;;24.70;11.90;;;;;;4976630;28;20429;-61
2023/06/19 01:21:35;;;;;;;12.83;12.03;;;24.70;12.20;;;;;;4976265;28;20770;-62
2023/06/19 01:24:01;;;;;;;10.70;9.83;;;24.70;12.30;;;;;;4991780;28;20897;-61
2023/06/19 01:26:27;;;;;;;10.03;9.30;;;24.70;12.40;;;;;;4991413;28;20528;-61
2023/06/19 01:28:54;;;;;;;11.23;10.47;;;24.60;12.80;;;;;;4991477;28;20214;-61
2023/06/19 01:31:35;;;;;;;10.40;9.37;;;24.60;13.00;;;;;;4991008;28;20429;-61
2023/06/19 01:34:03;;;;;;;10.53;9.73;;;24.60;13.30;;;;;;4991328;28;20480;-60
2023/06/19 01:36:30;;;;;;;10.53;9.93;;;24.50;13.40;;;;;;4991423;28;20513;-61
2023/06/19 01:38:58;;;;;;;9.17;8.67;;;24.50;13.50;;;;;;4991281;28;20422;-61
2023/06/19 01:41:24;;;;;;;10.63;10.03;;;24.40;13.70;;;;;;4990845;28;20441;-61
2023/06/19 01:43:51;;;;;;;10.30;9.60;;;24.30;14.00;;;;;;4991144;28;20421;-60
2023/06/19 01:46:18;;;;;;;9.80;9.20;;;24.30;14.30;;;;;;4991304;28;20787;-61
2023/06/19 01:48:43;;;;;;;10.53;9.83;;;24.20;14.60;;;;;;4991158;28;20426;-61
2023/06/19 01:51:10;;;;;;;9.70;9.10;;;24.20;14.70;;;;;;4990850;28;20797;-61
2023/06/19 01:53:35;;;;;;;9.50;8.90;;;24.10;14.80;;;;;;4991019;28;20215;-61
2023/06/19 01:56:01;;;;;;;10.47;9.77;;;24.10;15.10;;;;;;4976039;28;20420;-60
2023/06/19 01:58:27;;;;;;;10.00;9.50;;;24.00;15.50;;;;;;4991038;28;20186;-60
2023/06/19 02:00:53;;;;;;;9.43;9.03;;;24.00;15.80;;;;;;4990862;28;20273;-61
2023/06/19 02:03:18;;;;;;;9.97;9.37;;;23.90;15.90;;;;;;4990509;28;20269;-61
2023/06/19 02:05:44;;;;;;;10.30;9.70;;;23.90;16.30;;;;;;4990743;28;20178;-60
2023/06/19 02:08:10;;;;;;;9.93;9.33;;;23.80;16.50;;;;;;4990829;28;20669;-60
2023/06/19 02:10:35;;;;;;;9.77;9.27;;;23.80;16.70;;;;;;4990775;28;20178;-61
2023/06/19 02:13:01;;;;;;;10.60;10.00;;;23.80;16.80;;;;;;4988959;28;20534;-61
2023/06/19 02:15:27;;;;;;;9.60;9.10;;;23.80;16.90;;;;;;4990655;28;20582;-60
2023/06/19 02:17:56;;;;;;;10.67;10.07;;;23.80;17.20;;;;;;4990527;28;20198;-60
2023/06/19 02:20:24;;;;;;;10.43;9.83;;;23.70;17.40;;;;;;4990669;28;20185;-60
2023/06/19 02:22:50;;;;;;;9.97;9.27;;;23.70;17.70;;;;;;4989869;28;20484;-61
2023/06/19 02:25:16;;;;;;;10.00;9.50;;;23.60;17.90;;;;;;4990407;28;20521;-60
2023/06/19 02:27:41;;;;;;;10.63;10.03;;;23.70;17.90;;;;;;4990454;28;20510;-61
2023/06/19 02:30:07;;;;;;;9.93;9.43;;;23.70;17.90;;;;;;4990705;28;20194;-61
2023/06/19 02:32:33;;;;;;;10.20;9.60;;;23.70;17.90;;;;;;4989964;28;20786;-61
2023/06/19 02:34:58;;;;;;;9.63;9.23;;;23.70;17.90;;;;;;4990331;28;20493;-60
2023/06/19 02:37:24;;;;;;;10.87;9.87;;;23.70;17.90;;;;;;4990399;28;20541;-61
2023/06/19 02:39:50;;;;;;;9.43;8.93;;;23.70;17.90;;;;;;4975136;28;20675;-60
2023/06/19 02:42:15;;;;;;;9.50;9.00;;;23.70;18.00;;;;;;4973562;28;20547;-60
2023/06/19 02:44:42;;;;;;;8.93;8.43;;;23.70;18.00;;;;;;4990157;28;20740;-60
2023/06/19 02:47:08;;;;;;;10.17;9.57;;;23.70;17.90;;;;;;4990156;28;20193;-60
2023/06/19 02:49:33;;;;;;;9.93;9.30;;;23.70;17.90;;;;;;4990093;28;20517;-61
2023/06/19 02:51:59;;;;;;;10.50;9.80;;;23.70;18.10;;;;;;4989474;28;20207;-61
2023/06/19 02:54:25;;;;;;;9.37;8.87;;;23.60;18.30;;;;;;4990037;28;20209;-61
2023/06/19 02:56:50;;;;;;;9.90;9.00;;;23.70;18.30;;;;;;4989999;28;20186;-62
2023/06/19 02:59:16;;;;;;;10.03;9.43;;;23.70;18.30;;;;;;4973658;28;20274;-61
2023/06/19 03:01:42;;;;;;;10.27;9.67;;;23.70;18.40;;;;;;4989232;28;20179;-61
2023/06/19 03:04:07;;;;;;;9.33;8.87;;;23.70;18.50;;;;;;4989819;28;20241;-61
2023/06/19 03:06:39;;;;;;;10.60;9.80;;;23.60;18.50;;;;;;4989735;28;20182;-61
2023/06/19 03:09:11;;;;;;;10.63;10.07;;;23.60;18.80;;;;;;4989741;28;20187;-60
2023/06/19 03:11:41;;;;;;;10.00;9.33;;;23.60;19.00;;;;;;4989373;28;20425;-60
2023/06/19 03:14:07;;;;;;;10.30;9.70;;;23.50;19.20;;;;;;4989537;28;20469;-61
2023/06/19 03:16:35;;;;;;;8.23;7.83;;;23.50;19.80;;;;;;4989618;28;20782;-60
2023/06/19 03:19:01;;;;;;;9.67;9.17;;;23.50;19.40;;;;;;4989641;28;20426;-61
2023/06/19 03:21:27;;;;;;;9.70;9.20;;;23.40;19.40;;;;;;4974078;28;20493;-60
2023/06/19 03:23:53;;;;;;;9.80;9.20;;;23.40;19.70;;;;;;4988904;28;20648;-60
2023/06/19 03:26:20;;;;;;;10.27;9.67;;;23.40;20.00;;;;;;4989453;28;20193;-61
2023/06/19 03:28:47;;;;;;;9.60;9.10;;;23.30;21.60;;;;;;4989229;28;20547;-61
2023/06/19 03:31:13;;;;;;;10.47;9.57;;;23.40;23.40;;;;;;4988712;28;20426;-60
2023/06/19 03:33:38;;;;;;;9.70;9.20;;;23.30;22.30;;;;;;4988972;28;20461;-61
2023/06/19 03:36:05;;;;;;;9.20;8.70;;;23.30;21.40;;;;;;4989094;28;20468;-61
2023/06/19 03:38:31;;;;;;;9.13;8.73;;;23.20;21.40;;;;;;4989206;28;20218;-60
2023/06/19 03:40:56;;;;;;;9.40;8.77;;;23.20;21.00;;;;;;4989017;28;20439;-61
2023/06/19 03:43:22;;;;;;;9.00;8.60;;;23.10;21.00;;;;;;4988696;28;20184;-61
2023/06/19 03:45:48;;;;;;;8.97;8.50;;;23.00;21.00;;;;;;4988866;28;20663;-60
2023/06/19 03:48:13;;;;;;;8.40;8.00;;;22.90;21.20;;;;;;4988934;28;20218;-59
2023/06/19 03:50:39;;;;;;;8.50;8.00;;;22.80;21.70;;;;;;4988754;28;20182;-61
2023/06/19 03:53:04;;;;;;;9.10;8.70;;;22.80;22.00;;;;;;4988321;28;20304;-60
2023/06/19 03:55:30;;;;;;;9.00;8.60;;;22.70;22.50;;;;;;4989052;28;20183;-61
2023/06/19 03:57:56;;;;;;;8.77;8.37;;;22.70;22.60;;;;;;4988738;28;20191;-60
2023/06/19 04:00:22;;;;;;;8.77;8.13;;;22.70;22.40;;;;;;4988777;28;20205;-61
2023/06/19 04:02:48;;;;;;;9.70;9.30;;;22.80;22.80;;;;;;4988175;28;20182;-60
2023/06/19 04:05:15;;;;;;;8.80;8.40;;;22.80;22.50;;;;;;4988421;28;20182;-61
2023/06/19 04:07:41;;;;;;;8.70;8.30;;;22.80;22.60;;;;;;4988631;28;20277;-60
2023/06/19 04:10:07;;;;;;;9.57;8.97;;;22.70;22.60;;;;;;4988730;28;20858;-61
2023/06/19 04:12:33;;;;;;;10.33;9.73;;;22.70;22.90;;;;;;4988079;28;20305;-60
2023/06/19 04:14:58;;;;;;;8.80;8.40;;;22.60;23.10;;;;;;4988349;28;20501;-60
2023/06/19 04:17:24;;;;;;;9.47;9.00;;;22.60;23.30;;;;;;4988417;28;20179;-60
2023/06/19 04:19:50;;;;;;;9.07;8.67;;;22.70;23.50;;;;;;4988379;28;20237;-60
2023/06/19 04:22:15;;;;;;;9.20;8.80;;;22.60;23.80;;;;;;4973051;28;20221;-60
2023/06/19 04:24:41;;;;;;;10.53;9.73;;;22.60;23.80;;;;;;4988240;28;20178;-61
2023/06/19 04:27:08;;;;;;;9.30;8.90;;;22.60;24.20;;;;;;4988594;28;20190;-60
2023/06/19 04:29:34;;;;;;;9.47;9.07;;;22.60;24.40;;;;;;4988293;28;20240;-61
2023/06/19 04:32:03;;;;;;;9.97;9.47;;;22.50;24.60;;;;;;4987669;28;20534;-59
2023/06/19 04:34:28;;;;;;;10.30;9.80;;;22.50;24.70;;;;;;4988389;28;20434;-60
2023/06/19 04:36:58;;;;;;;10.40;9.90;;;22.50;24.80;;;;;;4987520;28;20436;-60
2023/06/19 04:39:24;;;;;;;9.87;9.37;;;22.50;24.90;;;;;;4988295;28;20598;-62
2023/06/19 04:41:49;;;;;;;9.43;9.00;;;22.50;24.80;;;;;;4972691;28;20514;-61
2023/06/19 04:44:15;;;;;;;10.33;9.73;;;22.50;24.80;;;;;;4988136;28;20428;-60
2023/06/19 04:46:43;;;;;;;9.90;9.50;;;22.50;24.90;;;;;;4988148;28;20214;-61
2023/06/19 04:49:09;;;;;;;10.40;10.00;;;22.50;25.10;;;;;;4988131;28;20205;-60
2023/06/19 04:51:35;;;;;;;9.50;9.13;;;22.40;25.20;;;;;;4987643;28;20418;-61
2023/06/19 04:54:01;;;;;;;10.00;9.60;;;22.50;25.30;;;;;;4988105;28;20210;-61
2023/06/19 04:56:27;;;;;;;10.60;10.10;;;22.50;25.10;;;;;;4988183;28;20233;-61
2023/06/19 04:58:56;;;;;;;9.47;9.07;;;22.60;25.10;;;;;;4988011;28;20217;-61
2023/06/19 05:01:27;;;;;;;9.63;9.23;;;22.60;25.00;;;;;;4987749;28;20449;-60
2023/06/19 05:03:54;;;;;;;10.67;9.97;;;22.70;25.20;;;;;;4987976;28;20426;-61
2023/06/19 05:06:21;;;;;;;10.67;10.00;;;22.70;25.20;;;;;;4988076;28;20418;-61
2023/06/19 05:08:47;;;;;;;10.50;10.00;;;22.70;25.10;;;;;;4988069;28;20827;-61
2023/06/19 05:11:13;;;;;;;9.63;9.23;;;22.70;25.20;;;;;;4987449;28;20422;-60
2023/06/19 05:13:38;;;;;;;10.93;10.43;;;22.70;25.20;;;;;;4987882;28;20742;-60
2023/06/19 05:16:04;;;;;;;10.20;9.70;;;22.80;25.30;;;;;;4987719;28;20517;-61
2023/06/19 05:18:30;;;;;;;10.20;9.80;;;22.90;25.40;;;;;;4971679;28;20189;-61
2023/06/19 05:20:55;;;;;;;9.43;9.03;;;22.90;25.30;;;;;;4987886;28;20322;-61
2023/06/19 05:23:21;;;;;;;9.27;8.87;;;22.90;25.20;;;;;;4987432;28;20186;-61
2023/06/19 05:25:47;;;;;;;10.07;9.67;;;22.90;25.20;;;;;;4987830;28;20179;-61
2023/06/19 05:28:12;;;;;;;9.17;8.77;;;22.90;25.20;;;;;;4972917;28;20290;-61
2023/06/19 05:30:38;;;;;;;10.50;9.90;;;22.90;25.00;;;;;;4987872;28;20178;-60
2023/06/19 05:33:04;;;;;;;9.53;9.03;;;22.90;25.10;;;;;;4987289;28;20570;-61
2023/06/19 05:35:30;;;;;;;10.17;9.70;;;22.80;25.60;;;;;;4987842;28;20640;-60
2023/06/19 05:37:56;;;;;;;10.20;9.80;;;22.80;25.70;;;;;;4987742;28;20230;-61
2023/06/19 05:40:21;;;;;;;11.10;10.40;;;22.80;25.60;;;;;;4987665;28;20438;-61
2023/06/19 05:42:47;;;;;;;10.80;10.27;;;22.80;25.60;;;;;;4987245;28;20179;-61
2023/06/19 05:45:12;;;;;;;10.17;9.57;;;22.90;25.50;;;;;;4987638;28;20190;-61
2023/06/19 05:47:38;;;;;;;9.93;9.53;;;22.90;25.50;;;;;;4974020;28;20178;-60
2023/06/19 05:50:04;;;;;;;10.10;9.70;;;22.80;25.60;;;;;;4991167;28;20183;-61
2023/06/19 05:52:30;;;;;;;10.57;10.07;;;22.80;25.70;;;;;;4990720;28;20211;-61
2023/06/19 05:54:57;;;;;;;10.17;9.57;;;22.70;25.90;;;;;;4991047;28;20970;-61
2023/06/19 05:57:23;;;;;;;10.77;10.27;;;22.80;25.80;;;;;;4990943;28;20181;-61
2023/06/19 05:59:50;;;;;;;10.70;10.30;;;22.90;25.80;;;;;;4990921;28;20414;-60
2023/06/19 06:02:17;;;;;;;10.57;10.17;;;22.90;25.80;;;;;;4990945;28;20189;-61
2023/06/19 06:04:43;;;;;;;11.73;10.93;;;23.00;25.80;;;;;;4991007;28;20446;-62
2023/06/19 06:07:08;;;;;;;10.10;9.40;;;23.00;25.90;;;;;;4974693;28;20848;-61
2023/06/19 06:09:34;;;;;;;10.50;10.10;;;23.10;25.60;;;;;;4991109;28;20183;-61
2023/06/19 06:12:00;;;;;;;10.63;10.13;;;23.10;25.50;;;;;;4990383;28;20532;-61
2023/06/19 06:14:26;;;;;;;10.70;10.20;;;23.10;25.40;;;;;;4990675;28;20273;-61
2023/06/19 06:16:52;;;;;;;10.70;10.20;;;23.20;25.70;;;;;;4990683;28;20449;-60
2023/06/19 06:19:21;;;;;;;10.40;10.00;;;23.20;25.50;;;;;;4990783;28;20794;-61
2023/06/19 06:21:46;;;;;;;10.57;10.10;;;23.30;25.20;;;;;;4990202;28;20179;-61
2023/06/19 06:24:12;;;;;;;10.50;10.00;;;23.30;25.40;;;;;;4990545;28;20955;-61
2023/06/19 06:26:38;;;;;;;11.80;11.07;;;23.30;25.10;;;;;;4990668;28;20665;-61
2023/06/19 06:29:03;;;;;;;10.53;10.03;;;23.30;25.20;;;;;;4990365;28;20302;-61
2023/06/19 06:31:29;;;;;;;10.93;10.30;;;23.40;25.10;;;;;;4990186;28;20647;-60
2023/06/19 06:33:54;;;;;;;10.47;10.07;;;23.40;24.60;;;;;;4990240;28;20216;-60
2023/06/19 06:36:20;;;;;;;10.23;9.73;;;23.40;24.70;;;;;;4990454;28;20183;-61
2023/06/19 06:38:45;;;;;;;9.40;9.00;;;23.50;24.40;;;;;;4990320;28;20190;-60
2023/06/19 06:41:11;;;;;;;11.00;10.30;;;23.60;24.10;;;;;;4989829;28;20229;-61
2023/06/19 06:43:38;;;;;;;9.53;9.13;;;23.70;24.20;;;;;;4990240;28;20179;-61
2023/06/19 06:46:04;;;;;;;9.87;9.47;;;23.70;23.30;;;;;;4990425;28;20192;-61
2023/06/19 06:48:30;;;;;;;9.93;9.50;;;23.80;23.10;;;;;;4990394;28;20418;-60
2023/06/19 06:51:01;;;;;;;10.53;10.13;;;24.00;22.40;;;;;;4990041;28;20702;-62
2023/06/19 06:53:27;;;;;;;10.20;9.80;;;24.10;21.90;;;;;;4989658;28;20527;-61
2023/06/19 06:55:54;;;;;;;10.60;10.10;;;24.20;21.70;;;;;;4989874;28;20414;-65
2023/06/19 06:58:19;;;;;;;10.00;9.60;;;24.20;21.60;;;;;;4990013;28;20415;-61
2023/06/19 07:00:45;;;;;;;10.40;10.00;;;24.20;21.50;;;;;;4989312;28;20477;-60
2023/06/19 07:03:11;;;;;;;10.67;10.17;;;24.30;21.40;;;;;;4989429;28;20189;-61
2023/06/19 07:05:37;;;;;;;11.00;10.40;;;24.20;21.40;;;;;;4989813;28;20202;-61
2023/06/19 07:08:03;;;;;;;9.03;8.73;;;24.20;21.40;;;;;;4989962;28;20430;-60
2023/06/19 07:10:29;;;;;;;9.30;8.90;;;24.20;21.30;;;;;;4989850;28;20186;-61
2023/06/19 07:12:55;;;;;;;9.33;8.93;;;24.20;21.50;;;;;;4989073;28;20488;-61
2023/06/19 07:15:21;;;;;;;9.40;8.97;;;24.20;21.30;;;;;;4989622;28;20453;-61
2023/06/19 07:17:47;;;;;;;9.27;8.87;;;24.20;21.20;;;;;;4989423;28;20269;-60
2023/06/19 07:20:13;;;;;;;9.90;9.40;;;24.20;21.50;;;;;;4974533;28;20558;-61
2023/06/19 07:22:39;;;;;;;8.80;8.40;;;24.20;21.20;;;;;;4989089;28;20418;-61
2023/06/19 07:25:05;;;;;;;9.10;8.70;;;24.20;21.40;;;;;;4989362;28;20794;-60
2023/06/19 07:27:31;;;;;;;8.83;8.43;;;24.20;21.40;;;;;;4989475;28;20233;-60
2023/06/19 07:29:56;;;;;;;8.83;8.43;;;24.20;21.70;;;;;;4989448;28;21005;-60
2023/06/19 07:32:22;;;;;;;9.00;8.60;;;24.20;21.00;;;;;;4988830;28;20233;-61
2023/06/19 07:34:47;;;;;;;8.50;8.20;;;24.20;20.90;;;;;;4989297;28;20215;-61
2023/06/19 07:37:20;;;;;;;8.83;8.53;;;24.30;20.90;;;;;;4989353;28;20659;-60
2023/06/19 07:39:47;;;;;;;9.83;9.00;;;24.40;20.80;;;;;;4989040;28;20549;-60
2023/06/19 07:42:17;;;;;;;8.90;8.40;;;24.50;20.30;;;;;;4988649;28;20513;-60
2023/06/19 07:44:43;;;;;;;9.13;8.80;;;24.60;20.10;;;;;;4973329;28;20414;-61
2023/06/19 07:47:09;;;;;;;9.40;9.10;;;24.70;19.90;;;;;;4989334;28;20426;-61
2023/06/19 07:49:36;;;;;;;9.37;9.00;;;24.80;19.40;;;;;;4989107;28;20410;-60
2023/06/19 07:52:02;;;;;;;8.30;7.90;;;25.00;19.00;;;;;;4973680;28;20414;-61
2023/06/19 07:54:28;;;;;;;9.50;9.10;;;25.10;18.60;;;;;;4988961;28;20448;-60
2023/06/19 07:56:53;;;;;;;9.40;9.00;;;25.10;18.10;;;;;;4988871;28;20418;-60
2023/06/19 07:59:20;;;;;;;9.70;9.20;;;25.10;18.10;;;;;;4989008;28;20632;-60
2023/06/19 08:01:46;;;;;;;9.30;8.90;;;25.20;18.60;;;;;;4988396;28;20186;-60
2023/06/19 08:04:11;;;;;;;9.00;8.60;;;25.30;18.10;;;;;;4988994;28;20426;-61
2023/06/19 08:06:37;;;;;;;8.37;7.97;;;25.20;18.40;;;;;;4988861;28;20233;-60
2023/06/19 08:09:03;;;;;;;9.10;8.70;;;25.30;18.50;;;;;;4988605;28;20325;-60
2023/06/19 08:11:29;;;;;;;8.23;7.93;;;25.20;18.50;;;;;;4988097;28;20186;-60
2023/06/19 08:13:55;;;;;;;9.13;8.50;;;25.30;18.50;;;;;;4988489;28;20616;-60
2023/06/19 08:16:20;;;;;;;8.47;8.17;;;25.20;18.60;;;;;;4988673;28;20260;-61
2023/06/19 08:18:46;;;;;;;8.27;7.83;;;25.10;18.50;;;;;;4988414;28;20345;-60
2023/06/19 08:21:12;;;;;;;8.60;8.10;;;25.10;18.60;;;;;;4988032;28;20190;-60
2023/06/19 08:23:39;;;;;;;8.40;8.00;;;25.20;18.40;;;;;;4988549;28;20632;-60
2023/06/19 08:26:05;;;;;;;8.50;8.00;;;25.10;18.40;;;;;;4988516;28;20430;-61
2023/06/19 08:28:34;;;;;;;9.30;8.40;;;25.10;18.40;;;;;;4988575;28;20824;-60
2023/06/19 08:30:59;;;;;;;8.53;8.13;;;25.10;18.40;;;;;;4988601;28;20278;-60
2023/06/19 08:33:25;;;;;;;9.27;8.03;;;25.00;18.80;;;;;;4988022;28;20536;-60
2023/06/19 08:35:51;;;;;;;9.07;8.50;;;25.10;18.90;;;;;;4988251;28;20179;-60
2023/06/19 08:38:17;;;;;;;8.00;7.70;;;25.10;19.10;;;;;;4988531;28;20210;-60
2023/06/19 08:40:43;;;;;;;8.30;7.80;;;25.00;18.90;;;;;;4988188;28;20729;-60
2023/06/19 08:43:08;;;;;;;9.47;9.00;;;25.00;18.90;;;;;;4972986;28;20643;-61
2023/06/19 08:45:34;;;;;;;8.40;7.97;;;25.00;19.10;;;;;;4973441;28;20442;-61
2023/06/19 08:48:03;;;;;;;8.80;8.00;;;25.00;18.90;;;;;;4988105;28;20237;-60
2023/06/19 08:50:30;;;;;;;8.87;7.80;;;25.00;19.30;;;;;;4988256;28;20201;-60
2023/06/19 08:52:56;;;;;;;8.60;8.20;;;25.00;19.40;;;;;;4987738;28;20458;-61
2023/06/19 08:55:22;;;;;;;9.13;8.63;;;25.10;19.10;;;;;;4988175;28;20422;-60
2023/06/19 08:57:49;;;;;;;8.90;8.37;;;25.30;18.70;;;;;;4988083;28;20425;-61
2023/06/19 09:00:26;;;;;;;7.87;7.57;;;25.50;18.30;;;;;;4973128;28;20417;-60
2023/06/19 09:02:57;;;;;;;8.10;7.80;;;25.40;18.40;;;;;;4987563;28;20992;-60
2023/06/19 09:05:23;;;;;;;8.87;8.57;;;25.40;18.40;;;;;;4987789;28;20572;-60
2023/06/19 09:08:02;;;;;;;8.83;8.40;;;25.60;17.00;;;;;;4987794;28;20512;-60
2023/06/19 09:10:28;;;;;;;9.40;9.00;;;25.50;16.70;;;;;;4988070;28;20237;-60
2023/06/19 09:13:02;;;;;;;8.80;8.40;;;25.60;17.30;;;;;;4987382;28;20462;-62
2023/06/19 09:15:29;;;;;;;9.97;9.33;;;25.70;17.60;;;;;;4988878;28;20186;-61
2023/06/19 09:18:05;;;;;;;8.80;8.40;;;26.00;16.70;;;;;;4987843;28;20841;-60
2023/06/19 09:20:32;;;;;;;8.50;8.20;;;26.30;15.80;;;;;;4987795;28;20516;-60
2023/06/19 09:22:59;;;;;;;8.60;8.30;;;26.30;16.00;;;;;;4974205;28;20417;-60
2023/06/19 09:25:26;;;;;;;8.83;8.43;;;26.20;15.90;;;;;;4991730;28;20425;-59
2023/06/19 09:27:53;;;;;;;8.33;8.03;;;26.20;16.20;;;;;;4991589;28;20421;-61
2023/06/19 09:30:19;;;;;;;8.37;8.07;;;26.10;16.50;;;;;;4991541;28;20734;-60
2023/06/19 09:32:45;;;;;;;7.50;7.20;;;26.10;17.00;;;;;;4990933;28;20824;-60
2023/06/19 09:35:11;;;;;;;8.20;7.80;;;26.20;15.60;;;;;;4991517;28;20425;-60
2023/06/19 09:37:40;;;;;;;8.23;7.73;;;26.50;15.10;;;;;;4991326;28;20178;-61
2023/06/19 09:40:10;;;;;;;8.00;7.60;;;26.90;14.30;;;;;;4991225;28;20918;-61
2023/06/19 09:42:38;;;;;;;8.33;8.00;;;27.10;13.90;;;;;;4990839;28;20476;-60
2023/06/19 09:45:09;;;;;;;8.87;8.30;;;27.10;14.40;;;;;;4991269;28;20468;-61
2023/06/19 09:47:46;;;;;;;9.27;8.67;;;27.00;15.40;;;;;;4991335;28;20465;-60
2023/06/19 09:50:14;;;;;;;9.60;9.10;;;26.90;15.80;;;;;;4991266;28;20422;-61
2023/06/19 09:52:44;;;;;;;9.03;8.63;;;26.80;15.90;;;;;;4990413;28;20497;-61
2023/06/19 09:55:14;;;;;;;9.10;8.63;;;26.70;16.40;;;;;;4991133;28;20426;-60
2023/06/19 09:57:41;;;;;;;8.77;8.23;;;26.50;16.70;;;;;;4991166;28;21195;-60
2023/06/19 10:00:14;;;;;;;7.93;7.43;;;26.40;16.60;;;;;;4991067;28;20836;-60
2023/06/19 10:02:41;;;;;;;7.80;7.40;;;26.30;17.10;;;;;;4990314;28;20470;-61
2023/06/19 10:05:12;;;;;;;8.37;7.97;;;26.30;17.10;;;;;;4991030;28;20418;-60
2023/06/19 10:07:41;;;;;;;8.33;7.60;;;26.20;17.10;;;;;;4990788;28;20426;-61
2023/06/19 10:10:22;;;;;;;8.03;7.73;;;26.30;17.10;;;;;;4990785;28;20418;-61
2023/06/19 10:12:47;;;;;;;7.20;6.90;;;26.40;16.70;;;;;;4990127;28;20488;-61
2023/06/19 10:15:21;;;;;;;8.07;7.63;;;26.80;15.50;;;;;;4990822;28;20426;-59
2023/06/19 10:18:05;;;;;;;8.57;8.17;;;27.00;15.60;;;;;;4990567;28;20178;-61
2023/06/19 10:20:32;;;;;;;7.77;7.47;;;27.10;15.50;;;;;;4990639;28;20426;-60
2023/06/19 10:23:11;;;;;;;8.13;7.63;;;27.20;15.20;;;;;;4989901;28;20915;-60
2023/06/19 10:25:43;;;;;;;7.97;7.57;;;27.30;14.90;;;;;;4990648;28;20429;-60
2023/06/19 10:28:32;;;;;;;8.60;8.10;;;27.50;14.60;;;;;;4990532;28;20438;-60
2023/06/19 10:31:01;;;;;;;7.90;7.50;;;27.70;14.30;;;;;;4990420;28;20410;-61
2023/06/19 10:33:32;;;;;;;9.20;7.47;;;27.70;14.30;;;;;;4988962;28;20585;-61
2023/06/19 10:36:02;;;;;;;9.00;8.30;;;27.60;14.60;;;;;;4989815;28;20493;-60
2023/06/19 10:38:28;;;;;;;8.20;7.80;;;27.60;14.60;;;;;;4990330;28;20472;-60
2023/06/19 10:40:53;;;;;;;8.50;8.10;;;27.60;14.50;;;;;;4990006;28;20437;-60
2023/06/19 10:43:22;;;;;;;9.27;8.83;;;27.60;14.90;;;;;;4989711;28;20953;-60
2023/06/19 10:45:48;;;;;;;9.10;8.60;;;27.60;15.40;;;;;;4990086;28;20218;-60
2023/06/19 10:48:19;;;;;;;9.97;9.57;;;27.60;15.40;;;;;;4990103;28;20450;-62
2023/06/19 10:50:45;;;;;;;9.90;9.50;;;27.60;15.40;;;;;;4989930;28;20698;-61
2023/06/19 10:53:10;;;;;;;9.30;8.90;;;27.50;15.50;;;;;;4989560;28;20505;-62
2023/06/19 10:55:36;;;;;;;8.70;8.20;;;27.40;16.00;;;;;;4989920;28;20178;-61
2023/06/19 10:58:01;;;;;;;8.83;8.33;;;27.30;16.20;;;;;;4974920;28;20670;-61
2023/06/19 11:00:30;;;;;;;8.83;8.33;;;27.20;16.40;;;;;;4989841;28;20265;-60
2023/06/19 11:02:56;;;;;;;8.97;8.47;;;27.10;16.30;;;;;;4989197;28;20237;-61
2023/06/19 11:05:24;;;;;;;9.30;8.90;;;27.10;16.50;;;;;;4989736;28;20437;-60
2023/06/19 11:07:56;;;;;;;9.00;8.60;;;26.90;16.70;;;;;;4989650;28;20509;-61
2023/06/19 11:10:24;;;;;;;9.17;8.67;;;26.90;17.30;;;;;;4974892;28;20418;-62
2023/06/19 11:12:53;;;;;;;9.50;9.00;;;26.90;17.40;;;;;;4988930;28;21048;-60
2023/06/19 11:15:19;;;;;;;9.30;8.87;;;26.90;17.40;;;;;;4989831;28;20501;-61
2023/06/19 11:17:44;;;;;;;9.77;9.20;;;26.90;17.40;;;;;;4989529;28;20983;-61
2023/06/19 11:20:13;;;;;;;9.17;8.77;;;27.10;16.50;;;;;;4989527;28;20662;-61
2023/06/19 11:22:41;;;;;;;9.27;8.77;;;27.20;16.30;;;;;;4988939;28;20208;-61
2023/06/19 11:25:08;;;;;;;9.77;8.93;;;27.30;16.10;;;;;;4974511;28;20426;-61
2023/06/19 11:27:37;;;;;;;9.40;8.90;;;27.40;16.20;;;;;;4989438;28;20430;-60
2023/06/19 11:30:06;;;;;;;9.23;8.77;;;27.40;16.20;;;;;;4974320;28;20834;-61
2023/06/19 11:32:35;;;;;;;9.50;8.70;;;27.30;16.10;;;;;;4988685;28;20651;-60
2023/06/19 11:35:07;;;;;;;8.77;8.37;;;27.30;16.10;;;;;;4989160;28;20497;-60
2023/06/19 11:37:33;;;;;;;9.00;8.60;;;27.40;16.00;;;;;;4989132;28;20422;-60
2023/06/19 11:39:59;;;;;;;8.67;8.17;;;27.50;16.00;;;;;;4988905;28;20770;-59
2023/06/19 11:42:25;;;;;;;9.63;9.17;;;27.60;15.80;;;;;;4988446;28;20182;-60
2023/06/19 11:44:55;;;;;;;9.57;9.07;;;27.50;15.70;;;;;;4988813;28;20509;-61
2023/06/19 11:47:21;;;;;;;9.17;8.77;;;27.50;15.70;;;;;;4989061;28;20505;-60
2023/06/19 11:49:51;;;;;;;10.10;9.60;;;27.40;15.70;;;;;;4988820;28;20568;-61
2023/06/19 11:52:17;;;;;;;9.90;9.50;;;27.40;16.00;;;;;;4988421;28;20426;-61
2023/06/19 11:54:42;;;;;;;10.20;9.60;;;27.30;15.90;;;;;;4988796;28;20448;-62
2023/06/19 11:57:12;;;;;;;9.87;9.17;;;27.50;15.50;;;;;;4974108;28;20182;-61
2023/06/19 11:59:42;;;;;;;10.10;9.60;;;27.50;15.70;;;;;;4988798;28;20269;-61
2023/06/19 12:02:08;;;;;;;9.87;9.43;;;27.40;15.70;;;;;;4988279;28;20426;-60
2023/06/19 12:04:34;;;;;;;10.03;9.53;;;27.50;15.20;;;;;;4988681;28;20425;-60
2023/06/19 12:07:00;;;;;;;9.53;9.13;;;27.60;15.30;;;;;;4988560;28;20920;-60
2023/06/19 12:09:27;;;;;;;9.60;9.20;;;27.60;15.70;;;;;;4988631;28;20186;-62
2023/06/19 12:11:53;;;;;;;10.10;9.70;;;27.50;15.70;;;;;;4987967;28;20450;-61
2023/06/19 12:14:19;;;;;;;13.13;12.20;;;27.40;15.80;;;;;;4988492;28;20508;-60
2023/06/19 12:16:48;;;;;;;11.50;10.70;;;27.20;15.70;;;;;;4988432;28;20199;-61
2023/06/19 12:19:14;;;;;;;10.90;10.30;;;27.10;15.70;;;;;;4988509;28;20520;-61
2023/06/19 12:21:40;;;;;;;9.80;9.40;;;27.10;16.10;;;;;;4987981;28;20406;-61
2023/06/19 12:24:06;;;;;;;9.70;9.30;;;27.10;16.30;;;;;;4988372;28;20485;-61
2023/06/19 12:26:36;;;;;;;10.43;9.93;;;27.10;16.30;;;;;;4988381;28;20205;-61
2023/06/19 12:29:03;;;;;;;10.00;9.50;;;27.10;15.90;;;;;;4988349;28;20480;-60
2023/06/19 12:31:29;;;;;;;10.57;9.97;;;27.10;15.80;;;;;;4988150;28;20846;-62
2023/06/19 12:33:55;;;;;;;10.70;10.20;;;27.10;15.70;;;;;;4988423;28;20496;-60
2023/06/19 12:36:21;;;;;;;10.87;10.37;;;27.10;16.20;;;;;;4972308;28;20517;-61
2023/06/19 12:38:48;;;;;;;10.80;10.30;;;27.10;16.30;;;;;;4988054;28;20457;-60